createdAt,value
2018-03-23T00:00:11.632Z,28.73
2018-03-23T00:02:37.870Z,23.05
2018-03-23T00:05:05.729Z,21.00
2018-03-23T00:07:32.133Z,24.77
2018-03-23T00:09:58.369Z,19.12
2018-03-23T00:12:31.523Z,23.65
2018-03-23T00:14:57.751Z,18.87
2018-03-23T00:17:23.979Z,20.75
2018-03-23T00:19:50.191Z,19.08
2018-03-23T00:22:16.412Z,23.30
2018-03-23T00:24:43.359Z,19.48
2018-03-23T00:27:09.748Z,22.50
2018-03-23T00:29:36.876Z,23.55
2018-03-23T00:32:04.146Z,26.52
2018-03-23T00:34:31.117Z,22.48
2018-03-23T00:36:57.319Z,22.23
2018-03-23T00:39:23.560Z,22.75
2018-03-23T00:41:49.782Z,19.92
2018-03-23T00:44:16.005Z,21.00
2018-03-23T00:46:42.223Z,19.50
2018-03-23T00:49:08.458Z,22.50
2018-03-23T00:51:34.664Z,19.48
2018-03-23T00:54:00.908Z,20.75
2018-03-23T00:56:27.114Z,20.62
2018-03-23T00:58:53.326Z,20.48
2018-03-23T01:01:19.550Z,23.48
2018-03-23T01:03:46.498Z,22.87
2018-03-23T01:06:13.488Z,24.45
2018-03-23T01:08:39.706Z,27.58
2018-03-23T01:11:06.708Z,27.20
2018-03-23T01:13:32.937Z,21.55
2018-03-23T01:15:59.148Z,24.73
2018-03-23T01:18:25.354Z,22.52
2018-03-23T01:20:51.648Z,26.77
2018-03-23T01:23:18.131Z,25.20
2018-03-23T01:25:44.348Z,21.17
2018-03-23T01:28:10.608Z,24.25
2018-03-23T01:30:36.840Z,25.45
2018-03-23T01:33:03.072Z,27.35
2018-03-23T01:35:29.758Z,30.73
2018-03-23T01:37:55.986Z,31.30
2018-03-23T01:40:22.226Z,27.17
2018-03-23T01:42:48.432Z,30.50
2018-03-23T01:45:14.662Z,22.58
2018-03-23T01:47:40.909Z,30.35
2018-03-23T01:50:07.927Z,29.55
2018-03-23T01:52:34.149Z,25.60
2018-03-23T01:55:00.364Z,23.73
2018-03-23T01:57:26.944Z,40.15
2018-03-23T01:59:53.147Z,31.87
2018-03-23T02:02:19.355Z,29.87
2018-03-23T02:04:46.314Z,30.45
2018-03-23T02:07:12.566Z,36.25
2018-03-23T02:09:38.793Z,31.70
2018-03-23T02:12:05.771Z,29.45
2018-03-23T02:14:32.272Z,36.50
2018-03-23T02:16:58.475Z,35.88
2018-03-23T02:19:24.713Z,32.33
2018-03-23T02:21:50.942Z,29.45
2018-03-23T02:24:17.151Z,35.17
2018-03-23T02:26:45.917Z,32.38
2018-03-23T02:29:12.113Z,38.33
2018-03-23T02:31:38.720Z,38.10
2018-03-23T02:34:04.948Z,36.78
2018-03-23T02:36:31.170Z,30.12
2018-03-23T02:38:57.393Z,40.25
2018-03-23T02:41:23.603Z,35.20
2018-03-23T02:43:50.916Z,35.60
2018-03-23T02:46:17.885Z,33.58
2018-03-23T02:48:44.155Z,33.72
2018-03-23T02:51:11.125Z,34.08
2018-03-23T02:53:38.076Z,31.77
2018-03-23T02:56:04.301Z,31.50
2018-03-23T02:58:31.259Z,41.63
2018-03-23T03:00:57.493Z,39.60
2018-03-23T03:03:23.708Z,41.28
2018-03-23T03:05:49.954Z,40.67
2018-03-23T03:08:16.171Z,34.60
2018-03-23T03:10:42.381Z,29.67
2018-03-23T03:13:09.335Z,36.95
2018-03-23T03:15:36.294Z,37.13
2018-03-23T03:18:03.321Z,34.88
2018-03-23T03:20:29.520Z,35.03
2018-03-23T03:22:55.770Z,45.03
2018-03-23T03:25:22.624Z,33.95
2018-03-23T03:27:48.879Z,35.10
2018-03-23T03:30:15.128Z,35.60
2018-03-23T03:32:41.344Z,36.42
2018-03-23T03:35:07.574Z,42.55
2018-03-23T03:37:33.774Z,40.78
2018-03-23T03:40:00.013Z,41.05
2018-03-23T03:42:26.254Z,42.45
2018-03-23T03:44:52.480Z,37.45
2018-03-23T03:47:18.705Z,40.25
2018-03-23T03:49:44.904Z,39.80
2018-03-23T03:52:11.118Z,40.90
2018-03-23T03:54:38.062Z,41.42
2018-03-23T03:57:04.306Z,42.67
2018-03-23T03:59:30.524Z,41.65
2018-03-23T04:01:56.735Z,45.60
2018-03-23T04:04:22.970Z,46.03
2018-03-23T04:06:49.196Z,39.70
2018-03-23T04:09:15.430Z,39.30
2018-03-23T04:11:42.400Z,40.75
2018-03-23T04:14:08.918Z,37.60
2018-03-23T04:16:35.152Z,43.25
2018-03-23T04:19:01.370Z,40.58
2018-03-23T04:21:27.596Z,39.22
2018-03-23T04:23:53.800Z,44.88
2018-03-23T04:26:20.014Z,50.72
2018-03-23T04:28:46.327Z,41.97
2018-03-23T04:31:12.568Z,51.42
2018-03-23T04:33:38.789Z,52.30
2018-03-23T04:36:05.016Z,46.75
2018-03-23T04:38:31.248Z,43.33
2018-03-23T04:40:57.466Z,49.97
2018-03-23T04:43:24.452Z,48.38
2018-03-23T04:45:50.711Z,50.58
2018-03-23T04:48:16.947Z,43.45
2018-03-23T04:50:43.159Z,48.08
2018-03-23T04:53:09.395Z,55.15
2018-03-23T04:55:36.370Z,49.28
2018-03-23T04:58:02.587Z,50.80
2018-03-23T05:00:29.570Z,47.08
2018-03-23T05:02:55.777Z,46.50
2018-03-23T05:05:22.311Z,49.88
2018-03-23T05:07:48.527Z,50.67
2018-03-23T05:10:14.771Z,55.95
2018-03-23T05:12:41.004Z,45.83
2018-03-23T05:15:07.251Z,47.65
2018-03-23T05:17:33.489Z,51.33
2018-03-23T05:19:59.737Z,41.70
2018-03-23T05:22:25.994Z,47.20
2018-03-23T05:24:52.238Z,49.88
2018-03-23T05:27:18.471Z,43.70
2018-03-23T05:29:44.699Z,41.20
2018-03-23T05:32:10.923Z,67.22
2018-03-23T05:34:37.511Z,52.80
2018-03-23T05:37:03.733Z,48.15
2018-03-23T05:39:29.992Z,38.65
2018-03-23T05:41:56.190Z,36.92
2018-03-23T05:44:22.395Z,43.03
2018-03-23T05:46:49.365Z,35.03
2018-03-23T05:49:15.575Z,33.28
2018-03-23T05:51:41.815Z,34.63
2018-03-23T05:54:10.686Z,31.77
2018-03-23T05:56:36.985Z,33.45
2018-03-23T05:59:03.242Z,36.33
2018-03-23T06:01:29.469Z,32.85
2018-03-23T06:03:55.704Z,29.17
2018-03-23T06:06:22.664Z,31.75
2018-03-23T06:08:48.900Z,30.60
2018-03-23T06:11:15.844Z,33.92
2018-03-23T06:13:42.788Z,24.73
2018-03-23T06:16:09.015Z,27.83
2018-03-23T06:18:35.217Z,26.15
2018-03-23T06:21:01.456Z,23.80
2018-03-23T06:23:28.755Z,31.45
2018-03-23T06:25:55.420Z,27.87
2018-03-23T06:28:21.644Z,27.23
2018-03-23T06:30:47.900Z,33.75
2018-03-23T06:33:14.098Z,30.98
2018-03-23T06:35:40.334Z,29.15
2018-03-23T06:38:06.594Z,29.20
2018-03-23T06:40:32.818Z,32.67
2018-03-23T06:42:59.116Z,29.75
2018-03-23T06:45:25.357Z,30.33
2018-03-23T06:47:52.312Z,37.53
2018-03-23T06:50:18.535Z,34.17
2018-03-23T06:52:44.738Z,33.03
2018-03-23T06:55:11.334Z,37.13
2018-03-23T06:57:37.540Z,39.15
2018-03-23T07:00:04.556Z,37.17
2018-03-23T07:02:31.523Z,32.38
2018-03-23T07:04:57.741Z,32.53
2018-03-23T07:07:23.996Z,36.85
2018-03-23T07:09:50.960Z,35.88
2018-03-23T07:12:17.203Z,34.13
2018-03-23T07:14:43.430Z,33.95
2018-03-23T07:17:10.433Z,33.70
2018-03-23T07:19:36.652Z,34.25
2018-03-23T07:22:02.881Z,34.50
2018-03-23T07:24:29.147Z,32.47
2018-03-23T07:26:55.436Z,35.45
2018-03-23T07:29:21.637Z,32.67
2018-03-23T07:31:47.851Z,32.22
2018-03-23T07:34:14.091Z,37.25
2018-03-23T07:36:40.347Z,33.85
2018-03-23T07:39:06.580Z,42.97
2018-03-23T07:41:32.859Z,37.15
2018-03-23T07:43:59.809Z,36.67
2018-03-23T07:46:26.050Z,35.50
2018-03-23T07:48:52.284Z,37.08
2018-03-23T07:51:18.519Z,34.80
2018-03-23T07:53:44.846Z,30.50
2018-03-23T07:56:11.015Z,37.13
2018-03-23T07:58:37.251Z,33.80
2018-03-23T08:01:03.520Z,33.58
2018-03-23T08:03:29.788Z,34.90
2018-03-23T08:05:56.025Z,37.05
2018-03-23T08:08:22.271Z,38.58
2018-03-23T08:10:48.534Z,36.80
2018-03-23T08:13:14.815Z,38.03
2018-03-23T08:15:41.302Z,36.45
2018-03-23T08:18:08.251Z,41.70
2018-03-23T08:20:34.463Z,39.63
2018-03-23T08:23:00.712Z,38.85
2018-03-23T08:25:26.934Z,39.47
2018-03-23T08:27:53.496Z,36.90
2018-03-23T08:30:19.782Z,33.30
2018-03-23T08:32:45.979Z,32.78
2018-03-23T08:35:12.220Z,42.50
2018-03-23T08:37:38.449Z,37.05
2018-03-23T08:40:04.682Z,40.42
2018-03-23T08:42:30.928Z,30.33
2018-03-23T08:44:57.191Z,30.88
2018-03-23T08:47:23.406Z,36.30
2018-03-23T08:49:49.622Z,34.67
2018-03-23T08:52:15.839Z,36.55
2018-03-23T08:54:42.060Z,34.67
2018-03-23T08:57:09.063Z,34.70
2018-03-23T08:59:35.324Z,31.60
2018-03-23T09:02:01.580Z,33.30
2018-03-23T09:04:28.552Z,30.80
2018-03-23T09:06:55.552Z,36.53
2018-03-23T09:09:21.822Z,33.58
2018-03-23T09:11:48.068Z,36.40
2018-03-23T09:14:14.304Z,33.85
2018-03-23T09:16:40.592Z,39.38
2018-03-23T09:19:06.792Z,38.03
2018-03-23T09:21:33.018Z,29.83
2018-03-23T09:23:59.246Z,31.73
2018-03-23T09:26:25.472Z,33.03
2018-03-23T09:28:51.705Z,30.37
2018-03-23T09:31:17.936Z,32.50
2018-03-23T09:33:44.159Z,31.25
2018-03-23T09:36:11.144Z,29.98
2018-03-23T09:38:37.508Z,34.95
2018-03-23T09:41:03.742Z,39.47
2018-03-23T09:43:29.965Z,30.80
2018-03-23T09:45:56.165Z,33.83
2018-03-23T09:48:23.139Z,35.15
2018-03-23T09:50:50.542Z,31.10
2018-03-23T09:53:16.926Z,37.08
2018-03-23T09:55:43.156Z,33.83
2018-03-23T09:58:10.653Z,36.15
2018-03-23T10:00:37.052Z,35.28
2018-03-23T10:03:03.281Z,43.20
2018-03-23T10:05:30.660Z,38.97
2018-03-23T10:07:57.067Z,38.90
2018-03-23T10:10:23.316Z,38.45
2018-03-23T10:12:50.162Z,37.90
2018-03-23T10:15:16.400Z,37.08
2018-03-23T10:17:42.667Z,42.15
2018-03-23T10:20:08.895Z,37.40
2018-03-23T10:22:35.116Z,39.67
2018-03-23T10:25:01.344Z,40.75
2018-03-23T10:27:28.371Z,36.97
2018-03-23T10:29:54.618Z,39.88
2018-03-23T10:32:21.089Z,32.75
2018-03-23T10:34:48.078Z,47.72
2018-03-23T10:37:14.335Z,42.00
2018-03-23T10:39:40.805Z,41.97
2018-03-23T10:42:07.137Z,38.50
2018-03-23T10:44:33.357Z,39.25
2018-03-23T10:46:59.605Z,38.63
2018-03-23T10:49:25.865Z,39.38
2018-03-23T10:51:52.155Z,41.30
2018-03-23T10:54:18.355Z,40.10
2018-03-23T10:56:44.587Z,41.58
2018-03-23T10:59:10.806Z,35.80
2018-03-23T11:01:52.226Z,41.58
2018-03-23T11:04:18.448Z,43.70
2018-03-23T11:06:44.707Z,43.15
2018-03-23T11:09:10.967Z,31.17
2018-03-23T11:11:37.204Z,38.90
2018-03-23T11:14:03.452Z,38.90
2018-03-23T11:16:30.422Z,35.67
2018-03-23T11:18:57.661Z,43.87
2018-03-23T11:21:23.893Z,41.72
2018-03-23T11:23:50.140Z,42.75
2018-03-23T11:26:16.383Z,36.20
2018-03-23T11:28:42.740Z,34.65
2018-03-23T11:31:09.744Z,42.33
2018-03-23T11:33:35.992Z,36.40
2018-03-23T11:36:02.574Z,36.50
2018-03-23T11:38:28.816Z,41.53
2018-03-23T11:40:55.048Z,38.97
2018-03-23T11:43:21.283Z,35.63
2018-03-23T11:45:47.517Z,40.30
2018-03-23T11:48:13.771Z,38.47
2018-03-23T11:50:40.044Z,37.78
2018-03-23T11:53:06.237Z,33.70
2018-03-23T11:55:32.452Z,35.67
2018-03-23T11:57:59.059Z,43.85
2018-03-23T12:00:26.024Z,44.63
2018-03-23T12:02:53.004Z,41.90
2018-03-23T12:05:19.296Z,35.03
2018-03-23T12:07:45.503Z,34.97
2018-03-23T12:10:11.739Z,37.63
2018-03-23T12:12:37.973Z,34.70
2018-03-23T12:15:04.246Z,35.83
2018-03-23T12:17:30.506Z,32.45
2018-03-23T12:19:57.049Z,36.40
2018-03-23T12:22:23.278Z,32.45
2018-03-23T12:24:49.545Z,30.80
2018-03-23T12:27:16.601Z,35.60
2018-03-23T12:29:42.833Z,30.67
2018-03-23T12:32:09.069Z,32.67
2018-03-23T12:34:35.277Z,35.47
2018-03-23T12:37:01.535Z,38.00
2018-03-23T12:39:27.794Z,34.25
2018-03-23T12:41:54.073Z,31.35
2018-03-23T12:44:20.320Z,31.35
2018-03-23T12:46:46.584Z,29.35
2018-03-23T12:49:12.825Z,33.53
2018-03-23T12:51:39.028Z,32.47
2018-03-23T12:54:06.265Z,27.98
2018-03-23T12:56:33.283Z,26.05
2018-03-23T12:58:59.521Z,32.30
2018-03-23T13:01:25.757Z,26.83
2018-03-23T13:03:51.972Z,32.20
2018-03-23T13:06:18.221Z,29.33
2018-03-23T13:08:44.439Z,28.45
2018-03-23T13:11:11.666Z,25.55
2018-03-23T13:13:37.912Z,30.95
2018-03-23T13:16:04.145Z,32.95
2018-03-23T13:18:30.374Z,32.30
2018-03-23T13:20:56.584Z,29.67
2018-03-23T13:23:22.864Z,25.23
2018-03-23T13:25:49.114Z,27.15
2018-03-23T13:28:15.389Z,29.83
2018-03-23T13:30:42.374Z,36.78
2018-03-23T13:33:08.608Z,28.77
2018-03-23T13:35:34.870Z,25.35
2018-03-23T13:38:01.106Z,30.20
2018-03-23T13:40:27.360Z,24.98
2018-03-23T13:42:53.588Z,27.05
2018-03-23T13:45:20.104Z,30.17
2018-03-23T13:47:46.340Z,25.75
2018-03-23T13:50:12.642Z,30.42
2018-03-23T13:52:38.828Z,30.90
2018-03-23T13:55:05.110Z,30.40
2018-03-23T13:57:31.354Z,28.75
2018-03-23T13:59:57.605Z,30.37
2018-03-23T14:02:23.839Z,30.37
2018-03-23T14:04:50.112Z,31.55
2018-03-23T14:07:17.098Z,30.80
2018-03-23T14:09:43.344Z,28.42
2018-03-23T14:12:09.580Z,25.67
2018-03-23T14:14:35.829Z,28.58
2018-03-23T14:17:02.056Z,31.10
2018-03-23T14:19:28.294Z,28.05
2018-03-23T14:21:54.511Z,28.12
2018-03-23T14:24:21.498Z,34.88
2018-03-23T14:26:49.347Z,33.67
2018-03-23T14:29:16.307Z,29.73
2018-03-23T14:31:43.288Z,24.52
2018-03-23T14:34:09.517Z,28.40
2018-03-23T14:36:36.511Z,27.95
2018-03-23T14:39:02.794Z,26.52
2018-03-23T14:41:29.016Z,26.62
2018-03-23T14:43:55.267Z,31.70
2018-03-23T14:46:21.487Z,25.88
2018-03-23T14:48:47.739Z,24.42
2018-03-23T14:51:13.977Z,27.83
2018-03-23T14:53:40.945Z,24.12
2018-03-23T14:56:07.244Z,25.17
2018-03-23T14:58:39.571Z,23.45
2018-03-23T15:01:05.824Z,24.70
2018-03-23T15:03:32.843Z,27.02
2018-03-23T15:05:59.109Z,24.10
2018-03-23T15:08:25.331Z,24.20
2018-03-23T15:10:52.291Z,27.13
2018-03-23T15:13:18.531Z,24.12
2018-03-23T15:15:44.776Z,24.08
2018-03-23T15:18:11.073Z,24.30
2018-03-23T15:20:37.307Z,25.17
2018-03-23T15:23:04.315Z,29.17
2018-03-23T15:25:30.548Z,24.65
2018-03-23T15:27:56.834Z,24.58
2018-03-23T15:30:23.822Z,26.62
2018-03-23T15:32:50.068Z,27.50
2018-03-23T15:35:16.305Z,23.20
2018-03-23T15:37:42.533Z,22.73
2018-03-23T15:40:08.795Z,24.27
2018-03-23T15:42:35.045Z,23.90
2018-03-23T15:45:01.277Z,22.80
2018-03-23T15:47:27.494Z,23.25
2018-03-23T15:49:53.758Z,22.58
2018-03-23T15:52:20.012Z,40.05
2018-03-23T15:54:46.267Z,23.12
2018-03-23T15:57:12.544Z,22.62
2018-03-23T15:59:39.510Z,25.12
2018-03-23T16:02:06.564Z,20.55
2018-03-23T16:04:32.768Z,24.40
2018-03-23T16:06:59.037Z,20.17
2018-03-23T16:09:26.047Z,19.60
2018-03-23T16:11:52.272Z,23.58
2018-03-23T16:14:18.508Z,20.98
2018-03-23T16:16:44.745Z,24.12
2018-03-23T16:19:10.980Z,20.88
2018-03-23T16:21:37.216Z,20.73
2018-03-23T16:24:03.774Z,23.90
2018-03-23T16:26:30.087Z,20.02
2018-03-23T16:28:56.273Z,30.25
2018-03-23T16:31:22.542Z,26.12
2018-03-23T16:33:48.815Z,21.50
2018-03-23T16:36:15.810Z,22.90
2018-03-23T16:38:42.060Z,19.37
2018-03-23T16:41:08.329Z,19.12
2018-03-23T16:43:34.557Z,19.55
2018-03-23T16:46:00.781Z,19.98
2018-03-23T16:48:27.054Z,23.17
2018-03-23T16:50:54.028Z,21.30
2018-03-23T16:53:21.036Z,25.35
2018-03-23T16:55:47.273Z,22.75
2018-03-23T16:58:13.769Z,25.08
2018-03-23T17:00:40.767Z,22.45
2018-03-23T17:03:07.028Z,24.87
2018-03-23T17:05:33.301Z,24.20
2018-03-23T17:07:59.584Z,20.67
2018-03-23T17:10:25.876Z,24.50
2018-03-23T17:12:52.137Z,24.77
2018-03-23T17:15:19.500Z,20.77
2018-03-23T17:17:46.569Z,23.17
2018-03-23T17:20:13.575Z,26.42
2018-03-23T17:22:39.924Z,29.60
2018-03-23T17:25:06.176Z,24.85
2018-03-23T17:27:32.455Z,23.23
2018-03-23T17:29:59.462Z,24.95
2018-03-23T17:32:25.701Z,25.08
2018-03-23T17:34:51.963Z,24.87
2018-03-23T17:37:18.195Z,21.35
2018-03-23T17:39:44.450Z,21.55
2018-03-23T17:42:10.707Z,29.05
2018-03-23T17:44:37.689Z,24.12
2018-03-23T17:47:03.962Z,24.90
2018-03-23T17:49:30.186Z,22.35
2018-03-23T17:51:56.479Z,20.73
2018-03-23T17:54:22.796Z,28.55
2018-03-23T17:56:49.082Z,20.23
2018-03-23T17:59:16.461Z,25.17
2018-03-23T18:01:42.776Z,26.87
2018-03-23T18:04:09.826Z,26.33
2018-03-23T18:06:37.600Z,27.40
2018-03-23T18:09:04.076Z,22.13
2018-03-23T18:11:31.079Z,27.10
2018-03-23T18:13:57.408Z,26.05
2018-03-23T18:16:23.686Z,24.70
2018-03-23T18:18:49.917Z,26.55
2018-03-23T18:21:16.187Z,26.10
2018-03-23T18:23:43.179Z,25.55
2018-03-23T18:26:09.493Z,29.12
2018-03-23T18:28:36.543Z,30.30
2018-03-23T18:31:03.582Z,29.70
2018-03-23T18:33:30.609Z,32.42
2018-03-23T18:35:57.105Z,27.10
2018-03-23T18:38:25.564Z,23.92
2018-03-23T18:40:52.083Z,27.50
2018-03-23T18:43:18.405Z,28.80
2018-03-23T18:45:46.645Z,27.90
2018-03-23T18:48:12.912Z,31.17
2018-03-23T18:50:39.230Z,34.38
2018-03-23T18:53:05.500Z,26.02
2018-03-23T18:55:32.518Z,37.30
2018-03-23T18:57:58.828Z,34.58
2018-03-23T19:00:25.128Z,32.75
2018-03-23T19:02:51.835Z,36.40
2018-03-23T19:05:19.211Z,33.95
2018-03-23T19:07:45.680Z,33.90
2018-03-23T19:10:11.929Z,33.08
2018-03-23T19:12:38.215Z,31.83
2018-03-23T19:15:04.517Z,34.90
2018-03-23T19:17:30.815Z,27.90
2018-03-23T19:19:57.144Z,29.70
2018-03-23T19:22:23.605Z,36.58
2018-03-23T19:24:49.912Z,37.47
2018-03-23T19:27:17.052Z,33.45
2018-03-23T19:29:43.334Z,37.25
2018-03-23T19:32:09.600Z,31.92
2018-03-23T19:34:35.888Z,32.33
2018-03-23T19:37:02.218Z,36.47
2018-03-23T19:39:28.532Z,41.95
2018-03-23T19:41:54.852Z,45.22
2018-03-23T19:44:21.210Z,43.50
2018-03-23T19:46:47.493Z,45.22
2018-03-23T19:49:13.799Z,40.12
2018-03-23T19:51:40.073Z,33.15
2018-03-23T19:54:06.560Z,39.17
2018-03-23T19:56:32.854Z,39.72
2018-03-23T19:58:59.134Z,36.75
2018-03-23T20:01:26.441Z,40.95
2018-03-23T20:03:52.737Z,35.72
2018-03-23T20:06:19.851Z,41.30
2018-03-23T20:08:46.147Z,32.72
2018-03-23T20:11:13.352Z,36.05
2018-03-23T20:13:40.408Z,34.88
2018-03-23T20:16:06.731Z,39.40
2018-03-23T20:18:33.040Z,30.27
2018-03-23T20:21:01.784Z,35.20
2018-03-23T20:23:28.991Z,31.42
2018-03-23T20:25:55.321Z,35.20
2018-03-23T20:28:29.007Z,36.70
2018-03-23T20:30:57.535Z,40.78
2018-03-23T20:33:23.965Z,37.33
2018-03-23T20:35:50.415Z,38.20
2018-03-23T20:38:16.719Z,36.35
2018-03-23T20:40:43.024Z,39.85
2018-03-23T20:43:09.301Z,39.45
2018-03-23T20:45:36.636Z,42.05
2018-03-23T20:48:03.150Z,38.83
2018-03-23T20:50:29.438Z,38.00
2018-03-23T20:52:55.881Z,41.95
2018-03-23T20:55:23.270Z,40.03
2018-03-23T20:57:50.474Z,42.08
2018-03-23T21:00:17.627Z,36.63
2018-03-23T21:02:43.888Z,38.85
2018-03-23T21:05:10.186Z,37.13
2018-03-23T21:07:38.276Z,45.08
2018-03-23T21:10:04.550Z,48.65
2018-03-23T21:12:30.850Z,48.78
2018-03-23T21:14:57.148Z,37.53
2018-03-23T21:17:23.344Z,42.62
2018-03-23T21:19:53.291Z,41.20
2018-03-23T21:22:19.528Z,45.72
2018-03-23T21:24:46.716Z,44.35
2018-03-23T21:27:13.208Z,39.60
2018-03-23T21:29:40.651Z,38.63
2018-03-23T21:32:07.636Z,39.00
2018-03-23T21:34:33.908Z,41.42
2018-03-23T21:37:01.166Z,39.35
2018-03-23T21:39:27.400Z,40.65
2018-03-23T21:41:54.414Z,44.53
2018-03-23T21:44:21.738Z,45.03
2018-03-23T21:46:48.802Z,41.55
2018-03-23T21:49:16.065Z,42.53
2018-03-23T21:51:42.591Z,45.80
2018-03-23T21:54:08.833Z,52.75
2018-03-23T21:56:35.115Z,41.37
2018-03-23T21:59:01.328Z,36.92
2018-03-23T22:01:27.663Z,38.63
2018-03-23T22:03:53.928Z,37.45
2018-03-23T22:06:20.200Z,41.67
2018-03-23T22:08:47.154Z,38.00
2018-03-23T22:11:14.120Z,42.30
2018-03-23T22:13:41.099Z,46.50
2018-03-23T22:16:07.316Z,49.72
2018-03-23T22:18:34.271Z,44.08
2018-03-23T22:21:01.256Z,45.58
2018-03-23T22:23:27.502Z,42.38
2018-03-23T22:25:53.740Z,45.12
2018-03-23T22:28:19.971Z,41.72
2018-03-23T22:30:46.188Z,42.60
2018-03-23T22:33:13.183Z,46.03
2018-03-23T22:35:39.415Z,41.05
2018-03-23T22:38:05.665Z,48.03
2018-03-23T22:40:31.910Z,44.17
2018-03-23T22:42:58.153Z,42.38
2018-03-23T22:45:24.400Z,41.00
2018-03-23T22:47:50.616Z,42.65
2018-03-23T22:50:16.847Z,41.10
2018-03-23T22:52:43.057Z,40.70
2018-03-23T22:55:09.314Z,42.15
2018-03-23T22:57:36.273Z,41.80
2018-03-23T23:00:03.281Z,43.87
2018-03-23T23:02:29.515Z,44.53
2018-03-23T23:04:55.732Z,42.13
2018-03-23T23:07:21.977Z,43.97
2018-03-23T23:09:48.243Z,42.67
2018-03-23T23:12:14.469Z,42.83
2018-03-23T23:14:40.713Z,36.13
2018-03-23T23:17:06.922Z,39.17
2018-03-23T23:19:33.207Z,45.92
2018-03-23T23:21:59.459Z,48.10
2018-03-23T23:24:27.173Z,45.75
2018-03-23T23:26:54.156Z,46.47
2018-03-23T23:29:20.364Z,49.20
2018-03-23T23:31:47.336Z,47.38
2018-03-23T23:34:13.551Z,44.88
2018-03-23T23:36:40.034Z,43.65
2018-03-23T23:39:06.256Z,37.60
2018-03-23T23:41:33.218Z,50.33
2018-03-23T23:43:59.437Z,51.03
2018-03-23T23:46:25.674Z,47.03
2018-03-23T23:48:51.886Z,47.25
2018-03-23T23:51:18.853Z,53.03
2018-03-23T23:53:45.112Z,49.63
2018-03-23T23:56:11.338Z,45.88
2018-03-23T23:58:37.562Z,50.10
